Diamond Island, Maine
Current Conditions -  °F | °C
As of 4:51 PM on Monday 20 Oct 2014 (Local Time) from KPWM Reporting Station
Scattered Clouds Scattered Clouds  
Wind Chill: 13°   Ceiling: Unl
Heat Index: 13°   Visibility: 10mi
Dew Point: -3°   Wind: 8mph
Humidity: 33%   Direction: 250°WSW
Pressure: 29.94"   Gusts: NA
Location:  43.6801°N, 70.1969°W
Report Text: KPWM 202051Z 25007KT 10SM SCT200 13/M03 A2994 RMK AO2 SLP137 T01331028 55000
Loading
Personal Weather Stations






























Interactive Weather Map
Tropical Storm Tracking
New forecast layout! Learn more

10-Day Weather Forecast

Advertisements
Track Severe Weather on mobile